Time;durP1;ratioP1;P1;durP2;ratioP2;P2;SDS_P1;SDS_P2;PMS_P1;PMS_P2;Temp;Humidity;BMP_temperature;BMP_pressure;BME280_temperature;BME280_humidity;BME280_pressure;Samples;Min_cycle;Max_cycle;Signal;HPM_P1;HPM_P2
2022/03/25 00:00:40;;;;;;;2.53;2.33;;;7.80;77.30;;;;;;5037053;28;20891;-46
2022/03/25 00:03:08;;;;;;;3.33;2.23;;;7.80;76.80;;;;;;5037075;28;20581;-47
2022/03/25 00:05:35;;;;;;;2.47;2.27;;;7.80;76.40;;;;;;5036599;28;20529;-46
2022/03/25 00:08:02;;;;;;;4.70;2.03;;;7.50;75.80;;;;;;5033158;28;20445;-46
2022/03/25 00:10:30;;;;;;;2.70;1.97;;;7.70;76.40;;;;;;5033827;28;20457;-47
2022/03/25 00:12:57;;;;;;;2.67;1.97;;;7.50;75.50;;;;;;5034077;28;20556;-46
2022/03/25 00:15:24;;;;;;;3.33;1.90;;;7.50;76.10;;;;;;5033978;28;20482;-47
2022/03/25 00:17:51;;;;;;;2.30;2.10;;;7.50;75.80;;;;;;5034400;28;20446;-46
2022/03/25 00:20:18;;;;;;;2.23;1.90;;;7.50;76.30;;;;;;5033988;28;20485;-47
2022/03/25 00:22:45;;;;;;;2.73;1.90;;;7.60;77.40;;;;;;5033837;28;20485;-46
2022/03/25 00:25:12;;;;;;;2.20;1.97;;;7.60;77.60;;;;;;5033886;28;21074;-49
2022/03/25 00:27:41;;;;;;;2.60;2.40;;;7.50;77.20;;;;;;5033963;28;20811;-46
2022/03/25 00:30:09;;;;;;;1.80;1.70;;;7.20;78.10;;;;;;5033189;28;21001;-47
2022/03/25 00:32:36;;;;;;;2.23;1.93;;;7.20;78.00;;;;;;5033506;28;20488;-46
2022/03/25 00:35:04;;;;;;;1.93;1.63;;;7.40;78.10;;;;;;5033839;28;20867;-48
2022/03/25 00:37:31;;;;;;;5.23;2.70;;;7.40;77.50;;;;;;5033764;28;20472;-49
2022/03/25 00:39:58;;;;;;;2.27;2.07;;;7.20;77.80;;;;;;5033401;28;20955;-46
2022/03/25 00:42:27;;;;;;;2.10;1.80;;;7.10;78.10;;;;;;5033591;28;20474;-47
2022/03/25 00:44:55;;;;;;;2.50;2.23;;;7.20;78.50;;;;;;5033545;28;20537;-46
2022/03/25 00:47:23;;;;;;;2.93;1.93;;;7.30;78.50;;;;;;5033338;28;20453;-46
2022/03/25 00:49:51;;;;;;;2.40;2.00;;;7.30;77.40;;;;;;5033250;28;20532;-47
2022/03/25 00:52:18;;;;;;;2.70;2.20;;;7.30;78.10;;;;;;5033403;28;20975;-46
2022/03/25 00:54:45;;;;;;;3.40;2.20;;;7.30;78.20;;;;;;5033336;28;20893;-48
2022/03/25 00:57:12;;;;;;;3.07;2.33;;;7.30;77.90;;;;;;5033330;28;20496;-47
2022/03/25 00:59:39;;;;;;;3.73;2.27;;;7.40;77.60;;;;;;5032861;28;20447;-46
2022/03/25 01:02:07;;;;;;;5.30;2.10;;;7.40;77.50;;;;;;5033016;28;20475;-46
2022/03/25 01:04:34;;;;;;;2.30;2.10;;;7.50;76.50;;;;;;5033291;28;20473;-46
2022/03/25 01:07:01;;;;;;;2.30;2.10;;;7.50;76.90;;;;;;5033206;28;20484;-47
2022/03/25 01:09:28;;;;;;;2.00;1.80;;;7.40;77.30;;;;;;5032680;28;21006;-46
2022/03/25 01:11:55;;;;;;;2.03;1.83;;;7.30;77.80;;;;;;5033152;28;20544;-47
2022/03/25 01:14:23;;;;;;;2.70;2.00;;;7.20;78.00;;;;;;5099443;22;21080;-44
2022/03/25 01:16:50;;;;;;;2.50;2.00;;;7.20;77.90;;;;;;5052832;28;20541;-44
2022/03/25 01:19:19;;;;;;;3.03;2.13;;;7.10;78.20;;;;;;5052311;28;20495;-44
2022/03/25 01:21:46;;;;;;;1.93;1.83;;;6.90;78.80;;;;;;5052808;28;20481;-44
2022/03/25 01:24:14;;;;;;;2.30;2.07;;;6.70;80.30;;;;;;5052742;28;21025;-44
2022/03/25 01:26:42;;;;;;;1.70;1.60;;;6.50;80.40;;;;;;5052965;28;20471;-44
2022/03/25 01:29:09;;;;;;;3.60;1.97;;;6.60;81.00;;;;;;5051996;28;20480;-44
2022/03/25 01:31:36;;;;;;;2.30;2.10;;;6.40;80.70;;;;;;5052430;28;20528;-44
2022/03/25 01:34:03;;;;;;;1.90;1.63;;;6.40;80.90;;;;;;5052687;28;20564;-44
2022/03/25 01:36:31;;;;;;;2.23;1.83;;;6.50;82.00;;;;;;5052464;28;20792;-44
2022/03/25 01:38:58;;;;;;;2.97;1.70;;;6.60;80.30;;;;;;5052403;28;20530;-44
2022/03/25 01:41:26;;;;;;;2.40;1.77;;;6.40;79.70;;;;;;5052414;28;20468;-44
2022/03/25 01:43:55;;;;;;;2.73;1.93;;;6.50;80.50;;;;;;5052204;28;21056;-44
2022/03/25 01:46:22;;;;;;;2.97;1.70;;;6.50;80.80;;;;;;5052250;28;20488;-44
2022/03/25 01:48:49;;;;;;;1.87;1.77;;;6.60;80.60;;;;;;5052131;28;20946;-44
2022/03/25 01:51:18;;;;;;;2.60;2.13;;;6.70;80.30;;;;;;5051843;28;20997;-44
2022/03/25 01:53:47;;;;;;;2.00;1.80;;;6.80;79.40;;;;;;5052112;28;20458;-44
2022/03/25 01:56:21;;;;;;;2.07;1.87;;;6.60;79.40;;;;;;5051965;28;20445;-44
2022/03/25 01:58:49;;;;;;;3.70;2.20;;;6.60;79.80;;;;;;5051946;28;20446;-44
2022/03/25 02:01:16;;;;;;;2.43;2.10;;;6.50;80.50;;;;;;5052213;28;20450;-44
2022/03/25 02:03:44;;;;;;;1.40;1.30;;;6.60;80.50;;;;;;5051245;28;20486;-44
2022/03/25 02:06:11;;;;;;;4.83;1.93;;;6.60;79.80;;;;;;5051732;28;20452;-44
2022/03/25 02:08:38;;;;;;;2.70;1.93;;;6.60;80.20;;;;;;5051850;28;20763;-44
2022/03/25 02:11:09;;;;;;;1.80;1.50;;;6.40;81.00;;;;;;5051684;28;20480;-44
2022/03/25 02:13:36;;;;;;;2.87;2.07;;;6.30;80.10;;;;;;5051298;28;20483;-44
2022/03/25 02:16:03;;;;;;;2.00;1.80;;;6.30;80.00;;;;;;5051952;28;20473;-43
2022/03/25 02:18:30;;;;;;;2.13;1.93;;;6.30;80.00;;;;;;5051923;28;20475;-44
2022/03/25 02:20:57;;;;;;;4.03;2.10;;;6.20;80.00;;;;;;5051613;28;20538;-44
2022/03/25 02:23:25;;;;;;;2.07;1.93;;;6.20;80.30;;;;;;5051566;28;20516;-44
2022/03/25 02:25:54;;;;;;;3.27;1.90;;;6.20;80.50;;;;;;5051571;28;20846;-44
2022/03/25 02:28:22;;;;;;;2.43;2.00;;;6.10;81.20;;;;;;5051705;28;20473;-44
2022/03/25 02:30:49;;;;;;;1.87;1.70;;;6.00;81.50;;;;;;5050524;28;20477;-44
2022/03/25 02:33:16;;;;;;;2.80;2.40;;;6.10;81.70;;;;;;5051428;28;20489;-44
2022/03/25 02:35:45;;;;;;;2.10;1.90;;;6.10;81.70;;;;;;5051461;28;20481;-44
2022/03/25 02:38:13;;;;;;;1.77;1.67;;;6.30;82.60;;;;;;5051416;28;20469;-44
2022/03/25 02:40:42;;;;;;;1.83;1.70;;;6.40;81.80;;;;;;5051347;28;20470;-44
2022/03/25 02:43:11;;;;;;;2.60;2.40;;;6.50;81.10;;;;;;5051346;28;20999;-44
2022/03/25 02:45:38;;;;;;;1.50;1.40;;;6.50;80.90;;;;;;5051324;28;20424;-44
2022/03/25 02:48:06;;;;;;;2.53;1.80;;;6.40;80.50;;;;;;5051107;28;20851;-44
2022/03/25 02:50:33;;;;;;;3.33;2.00;;;6.40;80.50;;;;;;5051058;28;20538;-44
2022/03/25 02:53:01;;;;;;;1.90;1.80;;;6.30;80.70;;;;;;5051335;28;20465;-44
2022/03/25 02:55:27;;;;;;;2.27;2.07;;;6.40;80.70;;;;;;5051311;28;20480;-44
2022/03/25 02:57:56;;;;;;;2.40;2.20;;;6.30;80.40;;;;;;5051199;28;20442;-44
2022/03/25 03:00:25;;;;;;;2.53;2.33;;;6.40;80.60;;;;;;5051082;28;20520;-44
2022/03/25 03:02:52;;;;;;;1.90;1.80;;;6.20;81.00;;;;;;5050853;28;20523;-44
2022/03/25 03:05:19;;;;;;;2.43;2.00;;;6.30;81.50;;;;;;5051196;28;20473;-44
2022/03/25 03:07:46;;;;;;;2.90;2.10;;;6.40;80.60;;;;;;5051064;28;20543;-44
2022/03/25 03:10:14;;;;;;;1.57;1.47;;;6.40;79.90;;;;;;5051199;28;20524;-44
2022/03/25 03:12:42;;;;;;;2.80;2.10;;;6.40;79.40;;;;;;5050817;28;20524;-44
2022/03/25 03:15:12;;;;;;;1.70;1.60;;;6.50;79.70;;;;;;5050939;28;20476;-44
2022/03/25 03:17:39;;;;;;;2.17;1.73;;;6.70;79.00;;;;;;5051064;28;20484;-43
2022/03/25 03:20:07;;;;;;;2.27;1.70;;;6.70;79.30;;;;;;5050699;28;20521;-44
2022/03/25 03:22:34;;;;;;;5.03;1.97;;;6.60;79.60;;;;;;5051479;28;20464;-44
2022/03/25 03:25:01;;;;;;;13.50;2.60;;;6.40;79.30;;;;;;5050919;28;20853;-44
2022/03/25 03:27:28;;;;;;;2.27;1.60;;;6.20;80.00;;;;;;5050983;28;21010;-44
2022/03/25 03:29:55;;;;;;;1.70;1.60;;;5.90;80.90;;;;;;5049774;28;20938;-44
2022/03/25 03:32:25;;;;;;;1.53;1.37;;;5.90;81.30;;;;;;5051013;28;20491;-44
2022/03/25 03:34:53;;;;;;;2.60;1.60;;;6.10;81.70;;;;;;5051415;28;20472;-44
2022/03/25 03:37:20;;;;;;;1.87;1.70;;;6.20;81.30;;;;;;5050805;28;20449;-43
2022/03/25 03:39:47;;;;;;;2.60;2.07;;;6.20;80.30;;;;;;5050713;28;20449;-43
2022/03/25 03:42:15;;;;;;;2.13;1.93;;;6.10;80.50;;;;;;5052481;28;20476;-44
2022/03/25 03:44:42;;;;;;;2.80;1.80;;;5.80;81.30;;;;;;5054360;28;20488;-44
2022/03/25 03:47:10;;;;;;;2.73;2.00;;;5.80;82.40;;;;;;5054408;28;20536;-44
2022/03/25 03:49:39;;;;;;;4.70;1.90;;;5.70;82.40;;;;;;5054353;28;20445;-44
2022/03/25 03:52:08;;;;;;;2.20;1.80;;;5.60;82.30;;;;;;5054383;28;20477;-44
2022/03/25 03:54:36;;;;;;;2.80;2.13;;;5.70;82.50;;;;;;5054200;28;20457;-44
2022/03/25 03:57:04;;;;;;;2.30;1.77;;;5.70;82.40;;;;;;5054364;28;20452;-44
2022/03/25 03:59:31;;;;;;;2.10;1.60;;;5.90;82.80;;;;;;5054198;28;20449;-44
2022/03/25 04:01:57;;;;;;;2.30;1.73;;;6.00;82.30;;;;;;5054103;28;20527;-44
2022/03/25 04:04:24;;;;;;;4.30;2.70;;;5.90;81.90;;;;;;5054142;28;20572;-44
2022/03/25 04:06:53;;;;;;;1.77;1.63;;;6.00;81.60;;;;;;5054394;28;20461;-44
2022/03/25 04:09:20;;;;;;;4.40;2.27;;;6.10;81.50;;;;;;5053798;28;20473;-43
2022/03/25 04:11:47;;;;;;;2.10;1.70;;;6.10;81.30;;;;;;5053994;28;20938;-44
2022/03/25 04:14:14;;;;;;;2.50;1.73;;;6.00;81.90;;;;;;5053851;28;20502;-44
2022/03/25 04:16:40;;;;;;;2.37;1.80;;;5.90;81.80;;;;;;5054026;28;20437;-45
2022/03/25 04:19:07;;;;;;;3.33;1.73;;;5.80;81.60;;;;;;5053859;28;20479;-44
2022/03/25 04:21:34;;;;;;;3.63;2.10;;;5.60;81.80;;;;;;5053902;28;20965;-44
2022/03/25 04:24:02;;;;;;;2.10;1.80;;;5.50;82.30;;;;;;5053642;28;20520;-44
2022/03/25 04:26:29;;;;;;;1.77;1.67;;;5.50;82.10;;;;;;5054118;28;20536;-44
2022/03/25 04:28:56;;;;;;;2.07;1.87;;;5.50;82.50;;;;;;5053535;28;20524;-44
2022/03/25 04:31:23;;;;;;;1.90;1.57;;;5.60;82.80;;;;;;5053583;28;20908;-44
2022/03/25 04:33:50;;;;;;;2.53;1.87;;;5.60;82.80;;;;;;5053507;28;20497;-44
2022/03/25 04:36:17;;;;;;;1.90;1.80;;;5.60;82.90;;;;;;5053566;28;20943;-44
2022/03/25 04:38:44;;;;;;;1.43;1.30;;;5.70;82.50;;;;;;5053749;28;20483;-44
2022/03/25 04:41:14;;;;;;;7.50;1.80;;;5.70;82.50;;;;;;5053557;28;20877;-44
2022/03/25 04:43:41;;;;;;;1.90;1.80;;;5.60;82.10;;;;;;5053113;28;20538;-44
2022/03/25 04:46:09;;;;;;;1.90;1.67;;;5.50;82.80;;;;;;5053424;28;20868;-44
2022/03/25 04:48:37;;;;;;;2.60;1.87;;;5.30;83.20;;;;;;5053226;28;20901;-44
2022/03/25 04:51:04;;;;;;;1.50;1.40;;;5.30;83.90;;;;;;5053208;28;20829;-44
2022/03/25 04:53:32;;;;;;;2.10;1.90;;;5.50;84.10;;;;;;5052820;28;20497;-44
2022/03/25 04:55:59;;;;;;;2.30;2.07;;;5.60;83.40;;;;;;5053312;28;20446;-44
2022/03/25 04:58:27;;;;;;;2.27;1.60;;;5.70;82.90;;;;;;5053122;28;20870;-44
2022/03/25 05:00:54;;;;;;;1.70;1.53;;;5.60;82.60;;;;;;5052678;28;20474;-44
2022/03/25 05:03:21;;;;;;;2.03;1.87;;;5.80;82.50;;;;;;5052931;28;20498;-44
2022/03/25 05:05:49;;;;;;;2.23;2.03;;;5.50;82.20;;;;;;5053239;28;20827;-44
2022/03/25 05:08:16;;;;;;;1.97;1.87;;;5.40;82.60;;;;;;5053004;28;21045;-44
2022/03/25 05:10:43;;;;;;;2.80;2.43;;;5.30;84.10;;;;;;5052900;28;20473;-44
2022/03/25 05:13:10;;;;;;;12.57;7.77;;;5.40;83.90;;;;;;5052685;28;20532;-44
2022/03/25 05:15:38;;;;;;;6.23;4.20;;;5.60;83.90;;;;;;5052842;28;20472;-44
2022/03/25 05:18:05;;;;;;;2.17;2.07;;;5.60;83.50;;;;;;5052810;28;20484;-44
2022/03/25 05:20:32;;;;;;;2.57;1.60;;;5.70;82.70;;;;;;5052488;28;20449;-44
2022/03/25 05:22:59;;;;;;;2.20;1.77;;;5.80;82.00;;;;;;5052513;28;21006;-44
2022/03/25 05:25:26;;;;;;;2.23;2.13;;;5.90;82.50;;;;;;5053185;28;20521;-44
2022/03/25 05:27:55;;;;;;;3.50;2.30;;;5.60;82.00;;;;;;5052538;28;20492;-44
2022/03/25 05:30:24;;;;;;;2.63;2.43;;;5.50;82.80;;;;;;5051450;28;20986;-44
2022/03/25 05:32:54;;;;;;;3.20;2.50;;;5.50;82.80;;;;;;5052667;28;20832;-44
2022/03/25 05:35:21;;;;;;;2.00;1.90;;;5.60;82.80;;;;;;5053344;28;20416;-44
2022/03/25 05:37:49;;;;;;;2.30;2.10;;;5.70;82.80;;;;;;5052370;28;20477;-44
2022/03/25 05:40:17;;;;;;;2.27;2.13;;;5.70;82.80;;;;;;5052041;28;20524;-44
2022/03/25 05:42:44;;;;;;;3.17;2.67;;;5.70;82.70;;;;;;5052454;28;20445;-44
2022/03/25 05:45:11;;;;;;;6.83;6.10;;;5.80;82.60;;;;;;5052474;28;20576;-44
2022/03/25 05:47:40;;;;;;;5.67;5.07;;;5.60;82.40;;;;;;5052343;28;20473;-44
2022/03/25 05:50:11;;;;;;;7.73;6.97;;;5.70;83.20;;;;;;5051617;28;20473;-44
2022/03/25 05:52:38;;;;;;;8.00;7.27;;;5.70;83.40;;;;;;5052146;28;20445;-44
2022/03/25 05:55:06;;;;;;;6.33;5.73;;;5.50;83.40;;;;;;5052355;28;20489;-44
2022/03/25 05:57:33;;;;;;;12.10;10.33;;;5.40;83.90;;;;;;5052042;28;20924;-44
2022/03/25 06:00:00;;;;;;;17.07;13.30;;;5.60;84.50;;;;;;5052169;28;20520;-44
2022/03/25 06:02:27;;;;;;;6.80;5.00;;;5.70;84.60;;;;;;5051764;28;20476;-44
2022/03/25 06:04:55;;;;;;;4.30;3.90;;;5.70;84.30;;;;;;5051075;28;20506;-44
2022/03/25 06:07:24;;;;;;;5.40;4.10;;;5.80;84.50;;;;;;5051783;28;20938;-44
2022/03/25 06:09:51;;;;;;;3.33;2.93;;;5.80;83.90;;;;;;5051712;28;20481;-44
2022/03/25 06:12:19;;;;;;;2.33;1.93;;;5.90;83.40;;;;;;5051814;28;21129;-44
2022/03/25 06:14:45;;;;;;;2.30;1.53;;;6.00;83.20;;;;;;5051345;28;20847;-44
2022/03/25 06:17:12;;;;;;;3.30;2.23;;;6.00;83.20;;;;;;5051808;28;20529;-44
2022/03/25 06:19:39;;;;;;;2.30;2.10;;;5.90;83.30;;;;;;5051433;28;20477;-44
2022/03/25 06:22:06;;;;;;;2.40;1.73;;;5.70;83.90;;;;;;5051990;28;20473;-44
2022/03/25 06:24:34;;;;;;;2.23;2.03;;;5.70;84.40;;;;;;5051425;28;20897;-44
2022/03/25 06:27:02;;;;;;;2.43;2.23;;;5.70;83.80;;;;;;5051472;28;20989;-44
2022/03/25 06:29:29;;;;;;;2.07;1.90;;;5.90;83.30;;;;;;5051258;28;20944;-44
2022/03/25 06:31:56;;;;;;;3.03;2.47;;;5.90;83.40;;;;;;5051276;28;20449;-44
2022/03/25 06:34:23;;;;;;;1.97;1.83;;;5.90;84.30;;;;;;5051468;28;20472;-44
2022/03/25 06:36:50;;;;;;;2.03;1.83;;;5.70;84.40;;;;;;5051409;28;20888;-44
2022/03/25 06:39:18;;;;;;;2.23;1.70;;;5.60;84.90;;;;;;5051151;28;20883;-44
2022/03/25 06:41:46;;;;;;;1.50;1.40;;;5.70;84.90;;;;;;5051285;28;20472;-44
2022/03/25 06:44:13;;;;;;;1.90;1.80;;;5.90;84.20;;;;;;5051220;28;20565;-44
2022/03/25 06:46:40;;;;;;;11.20;6.57;;;6.00;83.50;;;;;;5051480;28;20448;-45
2022/03/25 06:49:08;;;;;;;9.20;4.40;;;6.00;83.60;;;;;;5051512;28;20522;-44
2022/03/25 06:51:35;;;;;;;10.57;7.70;;;6.00;84.40;;;;;;5051453;28;20476;-44
2022/03/25 06:54:02;;;;;;;20.97;17.33;;;5.90;84.60;;;;;;5050928;28;21017;-44
2022/03/25 06:56:30;;;;;;;5.83;5.23;;;5.90;84.40;;;;;;5051017;28;20504;-44
2022/03/25 06:58:59;;;;;;;4.80;4.10;;;5.80;84.30;;;;;;5050791;28;20532;-44
2022/03/25 07:01:26;;;;;;;2.80;2.60;;;5.70;84.60;;;;;;5051278;28;20473;-44
2022/03/25 07:03:54;;;;;;;2.90;2.70;;;5.60;85.30;;;;;;5050753;28;20545;-44
2022/03/25 07:06:24;;;;;;;4.13;2.20;;;5.60;85.70;;;;;;5051010;28;20477;-44
2022/03/25 07:08:55;;;;;;;5.80;3.13;;;5.60;87.10;;;;;;5050959;28;20541;-44
2022/03/25 07:11:23;;;;;;;4.53;2.97;;;5.70;86.80;;;;;;5051101;28;20484;-44
2022/03/25 07:13:50;;;;;;;4.53;2.90;;;5.80;86.30;;;;;;5051834;28;20505;-49
2022/03/25 07:16:19;;;;;;;5.70;3.90;;;6.00;86.10;;;;;;5053273;28;20444;-46
2022/03/25 07:18:46;;;;;;;7.13;5.37;;;6.10;85.80;;;;;;5055087;28;20532;-48
2022/03/25 07:21:13;;;;;;;4.60;3.50;;;6.30;85.00;;;;;;5054814;28;20950;-46
2022/03/25 07:23:40;;;;;;;2.60;2.30;;;6.20;85.20;;;;;;5055081;28;20648;-46
2022/03/25 07:26:08;;;;;;;2.60;2.00;;;5.70;86.30;;;;;;5054930;28;20551;-47
2022/03/25 07:28:35;;;;;;;2.27;1.87;;;5.50;86.70;;;;;;5054812;28;20761;-48
2022/03/25 07:31:02;;;;;;;2.10;1.90;;;5.40;87.50;;;;;;5054347;28;20441;-46
2022/03/25 07:33:31;;;;;;;2.10;2.00;;;5.40;88.00;;;;;;5054710;28;20544;-46
2022/03/25 07:36:00;;;;;;;3.83;3.10;;;5.50;86.90;;;;;;5054652;28;20461;-46
2022/03/25 07:38:28;;;;;;;3.27;2.93;;;5.80;88.20;;;;;;5054894;28;20809;-46
2022/03/25 07:40:55;;;;;;;2.97;2.67;;;6.10;88.10;;;;;;5054679;28;20466;-46
2022/03/25 07:43:23;;;;;;;3.27;2.97;;;6.30;87.40;;;;;;5054846;28;20503;-46
2022/03/25 07:45:50;;;;;;;7.83;6.10;;;6.40;87.30;;;;;;5053011;28;20485;-46
2022/03/25 07:48:17;;;;;;;2.67;2.47;;;6.50;86.80;;;;;;5054317;28;20468;-46
2022/03/25 07:50:46;;;;;;;2.60;2.20;;;6.40;86.30;;;;;;5054035;28;20449;-47
2022/03/25 07:53:13;;;;;;;4.57;3.00;;;6.40;87.50;;;;;;5054620;28;20522;-46
2022/03/25 07:55:40;;;;;;;3.10;2.80;;;6.30;86.00;;;;;;5054450;28;20508;-46
2022/03/25 07:58:07;;;;;;;6.30;3.97;;;6.40;84.90;;;;;;5054568;28;20484;-47
2022/03/25 08:00:35;;;;;;;4.07;3.30;;;6.50;85.70;;;;;;5053843;28;20483;-46
2022/03/25 08:03:02;;;;;;;6.10;4.27;;;6.60;86.60;;;;;;5053899;28;20473;-46
2022/03/25 08:05:29;;;;;;;5.30;3.47;;;6.60;87.10;;;;;;5054156;28;20564;-46
2022/03/25 08:07:57;;;;;;;4.10;3.40;;;6.80;87.70;;;;;;5054183;28;20475;-46
2022/03/25 08:10:26;;;;;;;2.30;2.10;;;6.90;86.40;;;;;;5053559;28;20528;-46
2022/03/25 08:12:56;;;;;;;3.80;2.40;;;7.10;84.70;;;;;;5054034;28;20963;-46
2022/03/25 08:15:24;;;;;;;5.33;3.70;;;7.20;82.60;;;;;;5053962;28;20461;-46
2022/03/25 08:17:54;;;;;;;2.77;2.50;;;7.30;82.60;;;;;;5053895;28;20446;-46
2022/03/25 08:20:27;;;;;;;3.40;2.77;;;7.40;82.20;;;;;;5053737;28;20815;-46
2022/03/25 08:22:57;;;;;;;3.50;2.80;;;7.50;81.70;;;;;;5054045;28;20473;-47
2022/03/25 08:28:09;;;;;;;2.83;2.63;;;7.60;82.20;;;;;;5052989;28;20443;-49
2022/03/25 08:30:36;;;;;;;2.97;2.73;;;7.70;80.00;;;;;;5053087;28;20458;-46
2022/03/25 08:33:03;;;;;;;3.57;2.10;;;7.80;81.00;;;;;;5053752;28;20520;-47
2022/03/25 08:35:31;;;;;;;3.33;2.50;;;7.90;78.80;;;;;;5053811;28;20472;-46
2022/03/25 08:37:59;;;;;;;2.77;2.23;;;8.00;78.20;;;;;;5053604;28;20472;-46
2022/03/25 08:40:28;;;;;;;2.30;1.97;;;8.10;76.80;;;;;;5053191;28;20481;-46
2022/03/25 08:42:55;;;;;;;6.03;2.57;;;8.20;76.40;;;;;;5053538;28;20437;-46
2022/03/25 08:45:22;;;;;;;3.30;2.70;;;8.40;77.20;;;;;;5053432;28;20565;-49
2022/03/25 08:47:49;;;;;;;3.73;2.90;;;8.50;76.20;;;;;;5053750;28;20868;-46
2022/03/25 08:50:18;;;;;;;2.60;2.27;;;8.70;75.90;;;;;;5053128;28;20480;-47
2022/03/25 08:52:47;;;;;;;3.00;2.37;;;8.80;76.10;;;;;;5053299;28;20469;-46
2022/03/25 08:55:18;;;;;;;2.87;2.67;;;8.90;75.80;;;;;;5053218;28;20497;-46
2022/03/25 08:57:46;;;;;;;3.37;2.60;;;9.00;75.10;;;;;;5053559;28;20480;-46
2022/03/25 09:00:15;;;;;;;3.70;2.50;;;9.20;75.40;;;;;;5053308;28;20477;-45
2022/03/25 09:02:44;;;;;;;2.70;2.40;;;9.30;74.60;;;;;;5052928;28;20473;-44
2022/03/25 09:05:12;;;;;;;5.50;2.67;;;9.40;73.40;;;;;;5052957;28;20509;-45
2022/03/25 09:07:40;;;;;;;4.30;2.20;;;9.50;73.90;;;;;;5053010;28;20861;-46
2022/03/25 09:10:09;;;;;;;3.30;3.00;;;9.60;73.40;;;;;;5052410;28;20477;-46
2022/03/25 09:12:38;;;;;;;3.33;2.20;;;9.70;72.20;;;;;;5053019;28;20536;-45
2022/03/25 09:15:07;;;;;;;2.50;2.30;;;9.80;72.70;;;;;;5052591;28;20552;-44
2022/03/25 09:17:34;;;;;;;3.40;2.97;;;9.90;73.40;;;;;;5053036;28;20472;-48
2022/03/25 09:20:03;;;;;;;5.67;3.33;;;10.00;68.80;;;;;;5052501;28;20540;-44
2022/03/25 09:22:31;;;;;;;3.33;3.03;;;10.10;69.70;;;;;;5052552;28;20958;-47
2022/03/25 09:24:58;;;;;;;5.27;2.77;;;10.30;71.80;;;;;;5052585;28;20476;-44
2022/03/25 09:27:25;;;;;;;3.60;2.83;;;10.40;70.80;;;;;;5052667;28;20899;-44
2022/03/25 09:29:53;;;;;;;3.00;2.80;;;10.50;72.00;;;;;;5051707;28;20477;-44
2022/03/25 09:32:20;;;;;;;3.03;2.70;;;10.60;71.40;;;;;;5052709;28;20473;-45
2022/03/25 09:37:32;;;;;;;5.00;3.30;;;10.80;68.00;;;;;;5052935;28;20444;-44
2022/03/25 09:39:59;;;;;;;4.60;2.73;;;11.00;69.60;;;;;;5052046;28;20532;-44
2022/03/25 09:42:28;;;;;;;3.03;2.73;;;11.10;66.30;;;;;;5051831;28;20477;-45
2022/03/25 09:44:57;;;;;;;3.20;2.77;;;11.20;64.80;;;;;;5052247;28;20488;-46
2022/03/25 09:47:24;;;;;;;2.77;2.20;;;11.40;64.30;;;;;;5052299;28;20528;-45
2022/03/25 09:49:52;;;;;;;3.20;2.70;;;11.50;62.20;;;;;;5052151;28;20480;-45
2022/03/25 09:52:20;;;;;;;4.90;2.40;;;11.70;60.10;;;;;;5051971;28;20521;-44
2022/03/25 09:54:47;;;;;;;3.10;2.63;;;11.80;62.20;;;;;;5051682;28;20587;-45
2022/03/25 09:57:14;;;;;;;3.90;3.57;;;12.00;63.40;;;;;;5052201;28;20480;-45
2022/03/25 09:59:41;;;;;;;4.20;2.90;;;12.10;65.50;;;;;;5051886;28;20483;-44
2022/03/25 10:02:09;;;;;;;2.70;2.47;;;12.20;64.40;;;;;;5051007;28;20481;-47
2022/03/25 10:04:40;;;;;;;3.83;2.93;;;12.40;64.40;;;;;;5051785;28;20500;-47
2022/03/25 10:07:16;;;;;;;3.80;2.77;;;12.50;65.10;;;;;;5051556;28;20512;-44
2022/03/25 10:09:42;;;;;;;4.47;3.60;;;12.70;66.30;;;;;;5051540;28;20744;-44
2022/03/25 10:12:23;;;;;;;3.67;3.33;;;12.80;65.20;;;;;;5050071;28;20473;-46
2022/03/25 10:14:52;;;;;;;51.53;30.47;;;13.00;64.10;;;;;;5051381;28;20486;-45
2022/03/25 10:17:20;;;;;;;4.60;4.20;;;13.20;63.50;;;;;;5051363;28;20441;-46
2022/03/25 10:19:48;;;;;;;4.73;3.50;;;13.50;62.00;;;;;;5051425;28;20487;-45
2022/03/25 10:22:16;;;;;;;4.73;3.77;;;13.60;60.80;;;;;;5051374;28;20813;-45
2022/03/25 10:24:45;;;;;;;4.10;2.93;;;13.80;61.00;;;;;;5051146;28;20981;-44
2022/03/25 10:27:14;;;;;;;3.60;2.90;;;13.80;62.60;;;;;;5051415;28;20590;-45
2022/03/25 10:29:44;;;;;;;4.17;3.70;;;13.90;60.70;;;;;;5050642;28;20581;-45
2022/03/25 10:32:13;;;;;;;3.87;3.47;;;13.90;60.30;;;;;;5051300;28;20456;-44
2022/03/25 10:34:43;;;;;;;4.97;3.03;;;13.60;60.40;;;;;;5051269;28;20556;-44
2022/03/25 10:37:12;;;;;;;3.97;3.33;;;13.60;60.50;;;;;;5051587;28;20465;-44
2022/03/25 10:39:40;;;;;;;6.20;3.70;;;13.40;61.10;;;;;;5051223;28;20481;-48
2022/03/25 10:42:09;;;;;;;3.80;2.60;;;13.50;60.80;;;;;;5051149;28;20473;-45
2022/03/25 10:44:38;;;;;;;3.80;3.40;;;13.80;61.60;;;;;;5051309;28;20468;-46
2022/03/25 10:47:24;;;;;;;4.30;3.30;;;14.10;62.60;;;;;;5051582;28;20567;-45
2022/03/25 10:49:53;;;;;;;3.97;3.20;;;14.30;62.10;;;;;;5051027;28;20477;-45
2022/03/25 10:52:23;;;;;;;8.03;3.57;;;14.30;61.40;;;;;;5051040;28;20997;-45
2022/03/25 10:54:51;;;;;;;3.90;3.60;;;14.20;60.00;;;;;;5050753;28;20836;-46
2022/03/25 10:57:18;;;;;;;4.83;3.53;;;14.30;62.40;;;;;;5051176;28;20461;-45
2022/03/25 10:59:58;;;;;;;7.30;3.60;;;14.30;59.30;;;;;;5050856;28;20854;-45
2022/03/25 11:02:26;;;;;;;4.80;3.90;;;14.30;60.90;;;;;;5050921;28;20449;-45
2022/03/25 11:04:56;;;;;;;4.40;3.30;;;14.30;63.60;;;;;;5050985;28;20527;-46
2022/03/25 11:07:24;;;;;;;3.70;3.33;;;14.40;58.70;;;;;;5050735;28;20489;-49
2022/03/25 11:09:53;;;;;;;3.70;3.37;;;14.70;59.10;;;;;;5049464;28;20568;-45
2022/03/25 11:12:20;;;;;;;4.90;3.40;;;14.90;57.40;;;;;;5050280;28;20441;-45
2022/03/25 11:14:47;;;;;;;3.90;3.03;;;14.90;56.00;;;;;;5050797;28;20500;-45
2022/03/25 11:17:15;;;;;;;4.60;3.80;;;15.00;56.70;;;;;;5051097;28;20953;-46
2022/03/25 11:19:45;;;;;;;5.87;5.23;;;15.20;56.50;;;;;;5050118;28;20607;-47
2022/03/25 11:22:16;;;;;;;6.10;4.37;;;15.30;56.40;;;;;;5050838;28;20472;-47
2022/03/25 11:24:48;;;;;;;5.20;4.70;;;15.60;57.70;;;;;;5050972;28;20552;-46
2022/03/25 11:27:17;;;;;;;10.50;6.63;;;15.70;54.50;;;;;;5049207;28;20559;-48
2022/03/25 11:29:49;;;;;;;16.40;6.53;;;15.70;55.50;;;;;;5047657;28;20469;-48
2022/03/25 11:32:17;;;;;;;5.27;4.40;;;15.80;55.30;;;;;;5049671;28;20445;-45
2022/03/25 11:34:45;;;;;;;6.73;6.03;;;16.00;56.00;;;;;;5049841;28;20489;-46
2022/03/25 11:37:19;;;;;;;7.30;6.17;;;16.20;55.10;;;;;;5049397;28;20483;-46
2022/03/25 11:39:46;;;;;;;6.43;5.73;;;16.30;55.70;;;;;;5049326;28;20486;-46
2022/03/25 11:42:38;;;;;;;6.43;5.83;;;16.30;55.00;;;;;;5048894;28;20450;-47
2022/03/25 11:45:37;;;;;;;6.67;5.87;;;16.20;54.60;;;;;;5048105;28;20460;-45
2022/03/25 11:48:32;;;;;;;7.03;6.43;;;16.30;54.90;;;;;;5048129;28;20430;-47
2022/03/25 11:50:59;;;;;;;6.90;6.10;;;16.40;54.10;;;;;;5048137;28;20476;-48
2022/03/25 11:53:32;;;;;;;7.97;7.17;;;16.60;55.40;;;;;;5048483;28;20565;-46
2022/03/25 11:56:01;;;;;;;8.70;6.77;;;16.60;55.20;;;;;;5047497;28;20524;-45
2022/03/25 11:58:29;;;;;;;7.00;6.23;;;16.70;54.10;;;;;;5048310;28;20934;-48
2022/03/25 12:01:02;;;;;;;8.97;6.60;;;16.80;52.30;;;;;;5049051;28;20479;-45
2022/03/25 12:03:43;;;;;;;8.70;6.67;;;16.80;54.20;;;;;;5051891;28;20461;-46
2022/03/25 12:06:11;;;;;;;7.60;6.83;;;16.80;53.60;;;;;;5053843;28;20539;-48
2022/03/25 12:08:40;;;;;;;7.53;6.57;;;16.80;54.30;;;;;;5054361;28;20476;-45
2022/03/25 12:11:10;;;;;;;7.90;6.73;;;16.80;52.90;;;;;;5054074;28;20449;-46
2022/03/25 12:14:06;;;;;;;7.57;6.40;;;16.80;54.80;;;;;;5054012;28;20873;-46
2022/03/25 12:16:57;;;;;;;10.23;6.90;;;16.90;53.80;;;;;;5053801;28;20442;-46
2022/03/25 12:19:46;;;;;;;8.13;6.80;;;16.90;54.90;;;;;;5053541;28;20448;-46
2022/03/25 12:22:29;;;;;;;7.23;6.47;;;17.00;53.70;;;;;;5054041;28;20469;-46
2022/03/25 12:25:00;;;;;;;8.20;5.80;;;17.00;54.00;;;;;;5051834;28;21001;-48
2022/03/25 12:27:27;;;;;;;7.90;7.10;;;17.10;54.10;;;;;;5053808;28;20480;-46
2022/03/25 12:29:55;;;;;;;7.80;7.00;;;17.10;53.10;;;;;;5053254;28;20480;-46
2022/03/25 12:32:24;;;;;;;9.43;6.13;;;17.10;53.70;;;;;;5053749;28;20437;-46
2022/03/25 12:35:07;;;;;;;5.93;5.33;;;17.20;54.20;;;;;;5053470;28;20553;-48
2022/03/25 12:37:53;;;;;;;7.20;6.17;;;17.20;55.10;;;;;;5052155;28;20441;-49
2022/03/25 12:40:24;;;;;;;8.80;6.00;;;17.30;52.40;;;;;;5039217;28;20453;-46
2022/03/25 12:42:52;;;;;;;6.50;5.90;;;17.30;54.20;;;;;;5052126;28;20437;-48
2022/03/25 12:45:27;;;;;;;6.67;5.83;;;17.40;54.50;;;;;;5052029;28;20462;-48
2022/03/25 12:47:54;;;;;;;13.10;6.80;;;17.40;53.70;;;;;;5051680;28;20495;-48
2022/03/25 12:50:23;;;;;;;6.07;5.27;;;17.40;52.80;;;;;;5051858;28;20484;-46
2022/03/25 12:52:58;;;;;;;6.60;5.40;;;17.30;49.00;;;;;;5053238;28;20441;-46
2022/03/25 12:55:28;;;;;;;8.33;6.20;;;17.30;53.50;;;;;;5053319;28;20491;-46
2022/03/25 12:58:03;;;;;;;5.67;5.17;;;17.30;50.60;;;;;;5053294;28;20624;-46
2022/03/25 13:00:36;;;;;;;6.27;5.20;;;17.20;51.10;;;;;;5052695;28;20440;-49
2022/03/25 13:03:03;;;;;;;6.27;4.60;;;17.20;49.90;;;;;;5052786;28;20445;-46
2022/03/25 13:05:29;;;;;;;5.57;4.30;;;17.20;52.20;;;;;;5052894;28;20448;-46